sensor_id;sensor_type;location;lat;lon;timestamp;pressure;altitude;pressure_sealevel;temperature;humidity
68793;BME280;55778;54.346;10.210;2022-07-22T00:00:17;101242.75;;;16.26;80.36
68793;BME280;55778;54.346;10.210;2022-07-22T00:02:42;101249.94;;;16.27;80.32
68793;BME280;55778;54.346;10.210;2022-07-22T00:05:08;101256.81;;;16.23;80.00
68793;BME280;55778;54.346;10.210;2022-07-22T00:07:36;101255.75;;;16.16;79.59
68793;BME280;55778;54.346;10.210;2022-07-22T00:10:02;101254.59;;;16.18;78.98
68793;BME280;55778;54.346;10.210;2022-07-22T00:12:28;101253.38;;;16.13;78.74
68793;BME280;55778;54.346;10.210;2022-07-22T00:14:53;101256.63;;;16.00;79.07
68793;BME280;55778;54.346;10.210;2022-07-22T00:17:18;101257.66;;;15.99;79.06
68793;BME280;55778;54.346;10.210;2022-07-22T00:19:44;101267.78;;;15.98;78.52
68793;BME280;55778;54.346;10.210;2022-07-22T00:22:09;101255.91;;;15.90;78.82
68793;BME280;55778;54.346;10.210;2022-07-22T00:24:34;101261.41;;;15.90;79.19
68793;BME280;55778;54.346;10.210;2022-07-22T00:27:00;101271.72;;;15.96;78.94
68793;BME280;55778;54.346;10.210;2022-07-22T00:29:25;101268.28;;;15.94;79.55
68793;BME280;55778;54.346;10.210;2022-07-22T00:31:51;101268.44;;;15.92;79.32
68793;BME280;55778;54.346;10.210;2022-07-22T00:34:16;101265.53;;;15.94;79.28
68793;BME280;55778;54.346;10.210;2022-07-22T00:36:42;101270.81;;;15.87;80.00
68793;BME280;55778;54.346;10.210;2022-07-22T00:39:07;101267.56;;;15.92;79.99
68793;BME280;55778;54.346;10.210;2022-07-22T00:41:33;101263.81;;;15.93;80.10
68793;BME280;55778;54.346;10.210;2022-07-22T00:44:01;101260.38;;;15.91;81.07
68793;BME280;55778;54.346;10.210;2022-07-22T00:46:28;101258.13;;;15.86;81.76
68793;BME280;55778;54.346;10.210;2022-07-22T00:48:54;101260.38;;;15.91;81.74
68793;BME280;55778;54.346;10.210;2022-07-22T00:51:21;101265.00;;;15.82;82.02
68793;BME280;55778;54.346;10.210;2022-07-22T00:53:47;101264.44;;;15.79;82.03
68793;BME280;55778;54.346;10.210;2022-07-22T00:56:13;101260.16;;;15.76;82.24
68793;BME280;55778;54.346;10.210;2022-07-22T00:58:40;101271.97;;;15.69;82.44
68793;BME280;55778;54.346;10.210;2022-07-22T01:01:05;101264.44;;;15.71;83.62
68793;BME280;55778;54.346;10.210;2022-07-22T01:03:31;101264.69;;;15.52;84.98
68793;BME280;55778;54.346;10.210;2022-07-22T01:05:57;101267.66;;;15.33;86.10
68793;BME280;55778;54.346;10.210;2022-07-22T01:08:23;101270.56;;;15.23;86.85
68793;BME280;55778;54.346;10.210;2022-07-22T01:10:48;101279.91;;;15.13;87.23
68793;BME280;55778;54.346;10.210;2022-07-22T01:13:14;101284.84;;;15.01;89.66
68793;BME280;55778;54.346;10.210;2022-07-22T01:15:39;101279.13;;;14.95;89.29
68793;BME280;55778;54.346;10.210;2022-07-22T01:18:05;101285.19;;;14.81;90.41
68793;BME280;55778;54.346;10.210;2022-07-22T01:20:30;101276.59;;;14.76;91.07
68793;BME280;55778;54.346;10.210;2022-07-22T01:22:56;101290.22;;;14.68;91.54
68793;BME280;55778;54.346;10.210;2022-07-22T01:25:22;101295.50;;;14.61;92.16
68793;BME280;55778;54.346;10.210;2022-07-22T01:27:47;101290.09;;;14.52;91.95
68793;BME280;55778;54.346;10.210;2022-07-22T01:30:12;101290.09;;;14.52;92.62
68793;BME280;55778;54.346;10.210;2022-07-22T01:32:38;101293.88;;;14.51;92.12
68793;BME280;55778;54.346;10.210;2022-07-22T01:35:03;101296.38;;;14.44;93.02
68793;BME280;55778;54.346;10.210;2022-07-22T01:37:32;101290.00;;;14.44;93.63
68793;BME280;55778;54.346;10.210;2022-07-22T01:39:58;101294.34;;;14.29;92.43
68793;BME280;55778;54.346;10.210;2022-07-22T01:42:24;101297.25;;;14.27;92.00
68793;BME280;55778;54.346;10.210;2022-07-22T01:44:49;101288.31;;;14.25;92.53
68793;BME280;55778;54.346;10.210;2022-07-22T01:47:14;101291.81;;;14.35;92.41
68793;BME280;55778;54.346;10.210;2022-07-22T01:49:40;101289.72;;;14.29;92.67
68793;BME280;55778;54.346;10.210;2022-07-22T01:52:05;101287.84;;;14.30;92.57
68793;BME280;55778;54.346;10.210;2022-07-22T01:54:31;101288.38;;;14.33;92.34
68793;BME280;55778;54.346;10.210;2022-07-22T01:56:56;101285.25;;;14.28;93.05
68793;BME280;55778;54.346;10.210;2022-07-22T01:59:22;101293.06;;;14.23;91.60
68793;BME280;55778;54.346;10.210;2022-07-22T02:01:47;101300.56;;;14.21;92.70
68793;BME280;55778;54.346;10.210;2022-07-22T02:04:12;101301.19;;;14.15;93.30
68793;BME280;55778;54.346;10.210;2022-07-22T02:06:38;101292.41;;;14.12;93.77
68793;BME280;55778;54.346;10.210;2022-07-22T02:09:03;101296.19;;;14.11;92.52
68793;BME280;55778;54.346;10.210;2022-07-22T02:11:29;101290.44;;;14.04;93.07
68793;BME280;55778;54.346;10.210;2022-07-22T02:13:54;101296.84;;;13.95;93.80
68793;BME280;55778;54.346;10.210;2022-07-22T02:16:20;101296.38;;;13.82;94.35
68793;BME280;55778;54.346;10.210;2022-07-22T02:18:46;101295.41;;;13.73;93.98
68793;BME280;55778;54.346;10.210;2022-07-22T02:21:11;101293.28;;;13.67;95.39
68793;BME280;55778;54.346;10.210;2022-07-22T02:23:37;101286.47;;;13.71;94.68
68793;BME280;55778;54.346;10.210;2022-07-22T02:26:02;101288.50;;;13.69;95.36
68793;BME280;55778;54.346;10.210;2022-07-22T02:28:28;101284.94;;;13.69;95.69
68793;BME280;55778;54.346;10.210;2022-07-22T02:30:53;101282.41;;;13.75;96.09
68793;BME280;55778;54.346;10.210;2022-07-22T02:33:19;101286.28;;;13.82;95.38
68793;BME280;55778;54.346;10.210;2022-07-22T02:35:45;101292.06;;;13.79;95.97
68793;BME280;55778;54.346;10.210;2022-07-22T02:38:11;101288.03;;;13.74;96.15
68793;BME280;55778;54.346;10.210;2022-07-22T02:40:36;101283.84;;;13.79;96.37
68793;BME280;55778;54.346;10.210;2022-07-22T02:43:02;101281.81;;;13.81;95.98
68793;BME280;55778;54.346;10.210;2022-07-22T02:45:31;101284.53;;;13.81;95.88
68793;BME280;55778;54.346;10.210;2022-07-22T02:47:56;101282.81;;;13.80;96.33
68793;BME280;55778;54.346;10.210;2022-07-22T02:50:22;101286.13;;;13.84;96.55
68793;BME280;55778;54.346;10.210;2022-07-22T02:52:48;101279.63;;;13.85;96.51
68793;BME280;55778;54.346;10.210;2022-07-22T02:55:13;101281.94;;;13.80;96.65
68793;BME280;55778;54.346;10.210;2022-07-22T02:57:39;101284.84;;;13.78;95.76
68793;BME280;55778;54.346;10.210;2022-07-22T03:00:06;101287.59;;;13.78;96.29
68793;BME280;55778;54.346;10.210;2022-07-22T03:02:33;101285.41;;;13.82;96.39
68793;BME280;55778;54.346;10.210;2022-07-22T03:04:59;101284.53;;;13.81;96.56
68793;BME280;55778;54.346;10.210;2022-07-22T03:07:24;101285.66;;;13.88;96.77
68793;BME280;55778;54.346;10.210;2022-07-22T03:09:50;101290.44;;;13.86;96.78
68793;BME280;55778;54.346;10.210;2022-07-22T03:12:15;101289.41;;;13.87;95.69
68793;BME280;55778;54.346;10.210;2022-07-22T03:14:40;101294.13;;;13.95;95.39
68793;BME280;55778;54.346;10.210;2022-07-22T03:17:06;101302.66;;;13.92;95.47
68793;BME280;55778;54.346;10.210;2022-07-22T03:19:31;101295.69;;;13.97;95.64
68793;BME280;55778;54.346;10.210;2022-07-22T03:21:56;101302.91;;;13.98;95.95
68793;BME280;55778;54.346;10.210;2022-07-22T03:24:22;101300.47;;;13.95;95.47
68793;BME280;55778;54.346;10.210;2022-07-22T03:26:47;101303.53;;;13.92;95.43
68793;BME280;55778;54.346;10.210;2022-07-22T03:29:13;101305.22;;;13.93;95.33
68793;BME280;55778;54.346;10.210;2022-07-22T03:31:38;101307.78;;;14.04;95.14
68793;BME280;55778;54.346;10.210;2022-07-22T03:34:04;101310.34;;;14.06;95.32
68793;BME280;55778;54.346;10.210;2022-07-22T03:36:29;101311.44;;;14.13;95.13
68793;BME280;55778;54.346;10.210;2022-07-22T03:38:55;101314.66;;;14.08;95.34
68793;BME280;55778;54.346;10.210;2022-07-22T03:41:21;101314.25;;;14.03;96.13
68793;BME280;55778;54.346;10.210;2022-07-22T03:43:47;101310.81;;;14.01;95.97
68793;BME280;55778;54.346;10.210;2022-07-22T03:46:13;101315.44;;;14.19;95.17
68793;BME280;55778;54.346;10.210;2022-07-22T03:48:39;101313.56;;;14.19;95.27
68793;BME280;55778;54.346;10.210;2022-07-22T03:51:05;101319.22;;;14.18;95.14
68793;BME280;55778;54.346;10.210;2022-07-22T03:53:30;101312.16;;;14.15;95.35
68793;BME280;55778;54.346;10.210;2022-07-22T03:55:55;101315.06;;;14.14;95.72
68793;BME280;55778;54.346;10.210;2022-07-22T03:58:21;101315.91;;;14.14;94.97
68793;BME280;55778;54.346;10.210;2022-07-22T04:00:46;101321.06;;;14.17;95.38
68793;BME280;55778;54.346;10.210;2022-07-22T04:03:11;101316.53;;;14.08;96.08
68793;BME280;55778;54.346;10.210;2022-07-22T04:05:37;101313.63;;;14.09;95.58
68793;BME280;55778;54.346;10.210;2022-07-22T04:08:02;101322.00;;;14.08;95.90
68793;BME280;55778;54.346;10.210;2022-07-22T04:10:28;101309.16;;;14.08;95.44
68793;BME280;55778;54.346;10.210;2022-07-22T04:12:53;101309.94;;;14.19;94.95
68793;BME280;55778;54.346;10.210;2022-07-22T04:15:19;101311.44;;;14.13;95.38
68793;BME280;55778;54.346;10.210;2022-07-22T04:17:44;101307.38;;;14.17;95.27
68793;BME280;55778;54.346;10.210;2022-07-22T04:20:10;101306.69;;;14.15;95.90
68793;BME280;55778;54.346;10.210;2022-07-22T04:22:35;101305.78;;;14.24;95.28
68793;BME280;55778;54.346;10.210;2022-07-22T04:25:01;101308.66;;;14.23;95.45
68793;BME280;55778;54.346;10.210;2022-07-22T04:27:26;101312.81;;;14.27;94.85
68793;BME280;55778;54.346;10.210;2022-07-22T04:29:51;101313.25;;;14.22;95.37
68793;BME280;55778;54.346;10.210;2022-07-22T04:32:17;101310.16;;;14.35;94.34
68793;BME280;55778;54.346;10.210;2022-07-22T04:34:42;101315.31;;;14.38;93.67
68793;BME280;55778;54.346;10.210;2022-07-22T04:37:08;101315.78;;;14.33;94.63
68793;BME280;55778;54.346;10.210;2022-07-22T04:39:33;101312.41;;;14.39;93.85
68793;BME280;55778;54.346;10.210;2022-07-22T04:41:59;101314.31;;;14.39;93.76
68793;BME280;55778;54.346;10.210;2022-07-22T04:44:24;101323.06;;;14.42;92.98
68793;BME280;55778;54.346;10.210;2022-07-22T04:46:49;101312.97;;;14.43;92.61
68793;BME280;55778;54.346;10.210;2022-07-22T04:49:15;101316.59;;;14.43;92.99
68793;BME280;55778;54.346;10.210;2022-07-22T04:51:40;101312.81;;;14.44;91.18
68793;BME280;55778;54.346;10.210;2022-07-22T04:54:06;101311.63;;;14.47;90.57
68793;BME280;55778;54.346;10.210;2022-07-22T04:56:31;101307.66;;;14.41;91.45
68793;BME280;55778;54.346;10.210;2022-07-22T04:58:56;101303.88;;;14.42;91.44
68793;BME280;55778;54.346;10.210;2022-07-22T05:01:22;101305.16;;;14.48;91.21
68793;BME280;55778;54.346;10.210;2022-07-22T05:03:47;101302.16;;;14.41;91.98
68793;BME280;55778;54.346;10.210;2022-07-22T05:06:13;101304.75;;;14.43;92.81
68793;BME280;55778;54.346;10.210;2022-07-22T05:08:39;101303.19;;;14.40;92.53
68793;BME280;55778;54.346;10.210;2022-07-22T05:11:04;101314.22;;;14.48;92.69
68793;BME280;55778;54.346;10.210;2022-07-22T05:13:30;101306.41;;;14.53;92.63
68793;BME280;55778;54.346;10.210;2022-07-22T05:15:55;101307.78;;;14.57;92.27
68793;BME280;55778;54.346;10.210;2022-07-22T05:18:21;101310.63;;;14.65;92.08
68793;BME280;55778;54.346;10.210;2022-07-22T05:20:46;101306.69;;;14.68;92.13
68793;BME280;55778;54.346;10.210;2022-07-22T05:23:11;101304.66;;;14.70;92.52
68793;BME280;55778;54.346;10.210;2022-07-22T05:25:37;101308.78;;;14.74;92.39
68793;BME280;55778;54.346;10.210;2022-07-22T05:28:03;101310.91;;;14.80;92.64
68793;BME280;55778;54.346;10.210;2022-07-22T05:30:28;101306.16;;;14.90;91.16
68793;BME280;55778;54.346;10.210;2022-07-22T05:32:54;101310.84;;;14.97;91.22
68793;BME280;55778;54.346;10.210;2022-07-22T05:35:20;101309.72;;;15.08;90.89
68793;BME280;55778;54.346;10.210;2022-07-22T05:37:46;101307.91;;;15.16;90.23
68793;BME280;55778;54.346;10.210;2022-07-22T05:40:11;101309.09;;;15.14;90.54
68793;BME280;55778;54.346;10.210;2022-07-22T05:42:39;101309.09;;;15.14;90.03
68793;BME280;55778;54.346;10.210;2022-07-22T05:45:06;101305.53;;;15.21;90.31
68793;BME280;55778;54.346;10.210;2022-07-22T05:47:32;101303.34;;;15.25;89.48
68793;BME280;55778;54.346;10.210;2022-07-22T05:49:57;101298.53;;;15.27;89.94
68793;BME280;55778;54.346;10.210;2022-07-22T05:52:23;101303.44;;;15.41;88.16
68793;BME280;55778;54.346;10.210;2022-07-22T05:54:48;101304.66;;;15.38;87.99
68793;BME280;55778;54.346;10.210;2022-07-22T05:57:13;101305.78;;;15.36;87.97
68793;BME280;55778;54.346;10.210;2022-07-22T05:59:39;101305.78;;;15.36;87.46
68793;BME280;55778;54.346;10.210;2022-07-22T06:02:04;101311.28;;;15.36;87.53
68793;BME280;55778;54.346;10.210;2022-07-22T06:04:30;101313.50;;;15.32;87.03
68793;BME280;55778;54.346;10.210;2022-07-22T06:06:55;101316.09;;;15.34;87.51
68793;BME280;55778;54.346;10.210;2022-07-22T06:09:21;101316.25;;;15.32;87.28
68793;BME280;55778;54.346;10.210;2022-07-22T06:11:46;101328.34;;;15.39;86.46
68793;BME280;55778;54.346;10.210;2022-07-22T06:14:12;101319.78;;;15.42;86.82
68793;BME280;55778;54.346;10.210;2022-07-22T06:16:37;101319.84;;;15.58;85.29
68793;BME280;55778;54.346;10.210;2022-07-22T06:19:03;101316.38;;;15.98;84.23
68793;BME280;55778;54.346;10.210;2022-07-22T06:21:28;101315.06;;;16.02;83.00
68793;BME280;55778;54.346;10.210;2022-07-22T06:23:54;101322.28;;;16.19;82.92
68793;BME280;55778;54.346;10.210;2022-07-22T06:26:19;101329.72;;;16.27;81.35
68793;BME280;55778;54.346;10.210;2022-07-22T06:28:45;101326.69;;;16.46;82.28
68793;BME280;55778;54.346;10.210;2022-07-22T06:31:11;101331.41;;;16.20;81.44
68793;BME280;55778;54.346;10.210;2022-07-22T06:33:36;101329.50;;;16.12;82.25
68793;BME280;55778;54.346;10.210;2022-07-22T06:36:03;101319.50;;;16.03;81.40
68793;BME280;55778;54.346;10.210;2022-07-22T06:38:28;101330.84;;;16.00;82.71
68793;BME280;55778;54.346;10.210;2022-07-22T06:40:54;101324.97;;;15.87;81.89
68793;BME280;55778;54.346;10.210;2022-07-22T06:43:19;101320.84;;;15.91;82.64
68793;BME280;55778;54.346;10.210;2022-07-22T06:45:46;101330.09;;;15.82;81.96
68793;BME280;55778;54.346;10.210;2022-07-22T06:48:11;101329.03;;;15.83;82.94
68793;BME280;55778;54.346;10.210;2022-07-22T06:50:37;101325.78;;;15.79;83.07
68793;BME280;55778;54.346;10.210;2022-07-22T06:53:02;101329.91;;;15.75;83.30
68793;BME280;55778;54.346;10.210;2022-07-22T06:55:28;101334.38;;;15.76;84.41
68793;BME280;55778;54.346;10.210;2022-07-22T06:57:53;101335.03;;;15.78;83.87
68793;BME280;55778;54.346;10.210;2022-07-22T07:00:19;101342.16;;;15.97;82.94
68793;BME280;55778;54.346;10.210;2022-07-22T07:02:44;101336.56;;;16.15;83.33
68793;BME280;55778;54.346;10.210;2022-07-22T07:05:10;101329.84;;;16.09;82.05
68793;BME280;55778;54.346;10.210;2022-07-22T07:07:36;101334.16;;;16.28;80.91
68793;BME280;55778;54.346;10.210;2022-07-22T07:10:03;101333.13;;;16.21;80.98
68793;BME280;55778;54.346;10.210;2022-07-22T07:12:28;101334.34;;;16.18;80.03
68793;BME280;55778;54.346;10.210;2022-07-22T07:14:54;101335.00;;;16.12;80.53
68793;BME280;55778;54.346;10.210;2022-07-22T07:17:19;101345.81;;;16.06;82.04
68793;BME280;55778;54.346;10.210;2022-07-22T07:19:45;101347.22;;;16.10;81.49
68793;BME280;55778;54.346;10.210;2022-07-22T07:22:10;101354.72;;;15.99;80.95
68793;BME280;55778;54.346;10.210;2022-07-22T07:24:36;101353.72;;;16.09;82.31
68793;BME280;55778;54.346;10.210;2022-07-22T07:27:01;101350.31;;;16.15;80.70
68793;BME280;55778;54.346;10.210;2022-07-22T07:29:27;101352.38;;;16.21;82.10
68793;BME280;55778;54.346;10.210;2022-07-22T07:31:52;101354.25;;;16.20;80.60
68793;BME280;55778;54.346;10.210;2022-07-22T07:34:17;101362.22;;;16.31;80.16
68793;BME280;55778;54.346;10.210;2022-07-22T07:36:43;101364.78;;;16.33;78.93
68793;BME280;55778;54.346;10.210;2022-07-22T07:39:08;101363.03;;;16.24;79.60
68793;BME280;55778;54.346;10.210;2022-07-22T07:41:36;101363.25;;;16.38;78.32
68793;BME280;55778;54.346;10.210;2022-07-22T07:44:02;101374.75;;;16.34;79.37
68793;BME280;55778;54.346;10.210;2022-07-22T07:46:27;101368.03;;;16.28;78.06
68793;BME280;55778;54.346;10.210;2022-07-22T07:48:53;101364.97;;;16.31;78.01
68793;BME280;55778;54.346;10.210;2022-07-22T07:51:18;101368.75;;;16.30;79.09
68793;BME280;55778;54.346;10.210;2022-07-22T07:53:45;101372.19;;;16.32;79.56
68793;BME280;55778;54.346;10.210;2022-07-22T07:56:12;101376.66;;;16.33;78.52
68793;BME280;55778;54.346;10.210;2022-07-22T07:58:38;101372.34;;;16.23;79.00
68793;BME280;55778;54.346;10.210;2022-07-22T08:01:04;101376.50;;;16.43;78.21
68793;BME280;55778;54.346;10.210;2022-07-22T08:03:30;101377.59;;;16.58;76.96
68793;BME280;55778;54.346;10.210;2022-07-22T08:05:55;101380.56;;;16.64;76.46
68793;BME280;55778;54.346;10.210;2022-07-22T08:08:20;101381.25;;;16.74;76.11
68793;BME280;55778;54.346;10.210;2022-07-22T08:10:46;101384.53;;;16.78;76.93
68793;BME280;55778;54.346;10.210;2022-07-22T08:13:11;101384.84;;;16.99;75.55
68793;BME280;55778;54.346;10.210;2022-07-22T08:15:37;101382.94;;;16.75;75.69
68793;BME280;55778;54.346;10.210;2022-07-22T08:18:02;101382.63;;;16.78;75.45
68793;BME280;55778;54.346;10.210;2022-07-22T08:20:28;101386.75;;;16.90;75.32
68793;BME280;55778;54.346;10.210;2022-07-22T08:22:54;101385.19;;;16.80;76.01
68793;BME280;55778;54.346;10.210;2022-07-22T08:25:20;101386.22;;;16.87;75.59
68793;BME280;55778;54.346;10.210;2022-07-22T08:27:46;101390.88;;;16.70;75.33
68793;BME280;55778;54.346;10.210;2022-07-22T08:30:12;101388.28;;;16.77;74.64
68793;BME280;55778;54.346;10.210;2022-07-22T08:32:38;101387.44;;;16.76;75.39
68793;BME280;55778;54.346;10.210;2022-07-22T08:35:07;101394.47;;;16.63;76.05
68793;BME280;55778;54.346;10.210;2022-07-22T08:37:32;101401.53;;;16.65;76.73
68793;BME280;55778;54.346;10.210;2022-07-22T08:39:58;101404.94;;;16.59;77.62
68793;BME280;55778;54.346;10.210;2022-07-22T08:42:27;101403.50;;;16.39;76.75
68793;BME280;55778;54.346;10.210;2022-07-22T08:44:53;101408.31;;;16.37;77.44
68793;BME280;55778;54.346;10.210;2022-07-22T08:47:23;101410.34;;;16.35;77.22
68793;BME280;55778;54.346;10.210;2022-07-22T08:49:49;101407.97;;;16.40;74.80
68793;BME280;55778;54.346;10.210;2022-07-22T08:52:14;101412.84;;;16.46;75.70
68793;BME280;55778;54.346;10.210;2022-07-22T08:54:40;101422.88;;;16.71;74.09
68793;BME280;55778;54.346;10.210;2022-07-22T08:57:05;101429.56;;;16.77;73.13
68793;BME280;55778;54.346;10.210;2022-07-22T08:59:31;101424.06;;;16.77;72.31
68793;BME280;55778;54.346;10.210;2022-07-22T09:02:09;101425.78;;;16.70;72.78
68793;BME280;55778;54.346;10.210;2022-07-22T09:07:27;101421.31;;;16.69;73.11
68793;BME280;55778;54.346;10.210;2022-07-22T09:09:53;101425.31;;;16.82;73.41
68793;BME280;55778;54.346;10.210;2022-07-22T09:12:19;101433.22;;;16.85;72.10
68793;BME280;55778;54.346;10.210;2022-07-22T09:14:50;101424.09;;;17.01;71.55
68793;BME280;55778;54.346;10.210;2022-07-22T09:17:22;101427.03;;;16.83;71.39
68793;BME280;55778;54.346;10.210;2022-07-22T09:19:48;101431.50;;;16.76;71.26
68793;BME280;55778;54.346;10.210;2022-07-22T09:22:13;101426.66;;;16.94;70.56
68793;BME280;55778;54.346;10.210;2022-07-22T09:24:39;101436.84;;;17.02;69.70
68793;BME280;55778;54.346;10.210;2022-07-22T09:27:04;101436.69;;;17.19;68.80
68793;BME280;55778;54.346;10.210;2022-07-22T09:29:31;101438.09;;;17.47;69.45
68793;BME280;55778;54.346;10.210;2022-07-22T09:31:56;101431.50;;;17.40;64.89
68793;BME280;55778;54.346;10.210;2022-07-22T09:34:28;101433.91;;;17.27;66.84
68793;BME280;55778;54.346;10.210;2022-07-22T09:36:59;101439.59;;;17.26;68.00
68793;BME280;55778;54.346;10.210;2022-07-22T09:39:29;101434.09;;;17.26;68.29
68793;BME280;55778;54.346;10.210;2022-07-22T09:42:06;101431.84;;;16.97;66.68
68793;BME280;55778;54.346;10.210;2022-07-22T09:44:32;101442.69;;;16.99;68.56
68793;BME280;55778;54.346;10.210;2022-07-22T09:46:57;101439.78;;;17.08;67.52
68793;BME280;55778;54.346;10.210;2022-07-22T09:49:37;101434.78;;;17.28;67.54
68793;BME280;55778;54.346;10.210;2022-07-22T09:52:05;101434.06;;;17.42;65.79
68793;BME280;55778;54.346;10.210;2022-07-22T09:54:31;101431.00;;;17.45;65.39
68793;BME280;55778;54.346;10.210;2022-07-22T09:56:58;101437.75;;;17.50;65.25
68793;BME280;55778;54.346;10.210;2022-07-22T09:59:23;101440.28;;;17.68;66.63
68793;BME280;55778;54.346;10.210;2022-07-22T10:01:52;101438.25;;;17.46;67.26
68793;BME280;55778;54.346;10.210;2022-07-22T10:04:20;101452.53;;;17.17;68.09
68793;BME280;55778;54.346;10.210;2022-07-22T10:06:47;101438.72;;;17.09;69.16
68793;BME280;55778;54.346;10.210;2022-07-22T10:09:14;101443.72;;;17.14;68.69
68793;BME280;55778;54.346;10.210;2022-07-22T10:11:41;101443.41;;;17.57;67.40
68793;BME280;55778;54.346;10.210;2022-07-22T10:14:12;101440.31;;;17.28;68.16
68793;BME280;55778;54.346;10.210;2022-07-22T10:16:38;101445.16;;;17.58;68.51
68793;BME280;55778;54.346;10.210;2022-07-22T10:19:07;101431.97;;;18.39;65.71
68793;BME280;55778;54.346;10.210;2022-07-22T10:21:34;101432.56;;;18.57;63.70
68793;BME280;55778;54.346;10.210;2022-07-22T10:24:19;101440.72;;;17.96;65.87
68793;BME280;55778;54.346;10.210;2022-07-22T10:26:56;101436.44;;;18.40;63.68
68793;BME280;55778;54.346;10.210;2022-07-22T10:34:41;101437.44;;;18.77;60.05
68793;BME280;55778;54.346;10.210;2022-07-22T10:40:14;101439.88;;;18.50;61.68
68793;BME280;55778;54.346;10.210;2022-07-22T10:45:40;101437.25;;;18.10;61.70
68793;BME280;55778;54.346;10.210;2022-07-22T10:48:11;101446.50;;;18.25;61.84
68793;BME280;55778;54.346;10.210;2022-07-22T10:53:17;101443.00;;;18.39;62.08
68793;BME280;55778;54.346;10.210;2022-07-22T10:56:01;101455.75;;;18.40;61.06
68793;BME280;55778;54.346;10.210;2022-07-22T11:01:04;101448.56;;;18.23;63.28
68793;BME280;55778;54.346;10.210;2022-07-22T11:03:31;101450.44;;;18.30;63.89
68793;BME280;55778;54.346;10.210;2022-07-22T11:08:47;101455.34;;;18.59;63.12
68793;BME280;55778;54.346;10.210;2022-07-22T11:11:13;101435.84;;;18.22;62.23
68793;BME280;55778;54.346;10.210;2022-07-22T11:13:40;101437.25;;;18.10;62.58
68793;BME280;55778;54.346;10.210;2022-07-22T11:16:25;101443.22;;;18.29;61.24
68793;BME280;55778;54.346;10.210;2022-07-22T11:18:56;101439.19;;;18.40;62.27
68793;BME280;55778;54.346;10.210;2022-07-22T11:21:24;101448.44;;;18.55;60.37
68793;BME280;55778;54.346;10.210;2022-07-22T11:23:52;101437.41;;;18.55;59.33
68793;BME280;55778;54.346;10.210;2022-07-22T11:26:21;101441.50;;;18.89;59.36
68793;BME280;55778;54.346;10.210;2022-07-22T11:28:48;101444.56;;;18.72;58.14
68793;BME280;55778;54.346;10.210;2022-07-22T11:31:17;101432.84;;;18.70;58.57
68793;BME280;55778;54.346;10.210;2022-07-22T11:33:43;101438.25;;;18.63;58.35
68793;BME280;55778;54.346;10.210;2022-07-22T11:36:09;101449.69;;;18.52;59.30
68793;BME280;55778;54.346;10.210;2022-07-22T11:38:45;101437.69;;;18.68;58.57
68793;BME280;55778;54.346;10.210;2022-07-22T11:41:11;101440.75;;;18.42;58.85
68793;BME280;55778;54.346;10.210;2022-07-22T11:43:48;101445.84;;;18.61;58.82
68793;BME280;55778;54.346;10.210;2022-07-22T11:46:15;101439.16;;;18.78;57.95
68793;BME280;55778;54.346;10.210;2022-07-22T11:48:42;101435.47;;;18.86;58.59
68793;BME280;55778;54.346;10.210;2022-07-22T11:51:09;101434.78;;;18.61;60.32
68793;BME280;55778;54.346;10.210;2022-07-22T11:53:40;101440.09;;;18.93;58.63
68793;BME280;55778;54.346;10.210;2022-07-22T11:56:07;101444.06;;;18.68;58.26
68793;BME280;55778;54.346;10.210;2022-07-22T11:58:43;101439.31;;;19.07;57.35
68793;BME280;55778;54.346;10.210;2022-07-22T12:01:11;101434.84;;;18.84;58.48
68793;BME280;55778;54.346;10.210;2022-07-22T12:03:40;101439.31;;;19.07;58.62
68793;BME280;55778;54.346;10.210;2022-07-22T12:06:08;101435.03;;;19.05;57.39
68793;BME280;55778;54.346;10.210;2022-07-22T12:08:40;101451.66;;;18.97;57.66
68793;BME280;55778;54.346;10.210;2022-07-22T12:11:06;101443.91;;;18.92;56.80
68793;BME280;55778;54.346;10.210;2022-07-22T12:13:32;101445.56;;;18.79;57.27
68793;BME280;55778;54.346;10.210;2022-07-22T12:15:58;101447.44;;;18.56;56.45
68793;BME280;55778;54.346;10.210;2022-07-22T12:18:25;101445.56;;;18.79;57.20
68793;BME280;55778;54.346;10.210;2022-07-22T12:20:54;101435.91;;;19.20;54.89
68793;BME280;55778;54.346;10.210;2022-07-22T12:23:24;101436.72;;;18.83;57.10
68793;BME280;55778;54.346;10.210;2022-07-22T12:25:59;101440.78;;;18.95;57.05
68793;BME280;55778;54.346;10.210;2022-07-22T12:28:25;101442.00;;;18.70;57.63
68793;BME280;55778;54.346;10.210;2022-07-22T12:30:54;101437.94;;;19.48;56.13
68793;BME280;55778;54.346;10.210;2022-07-22T12:33:22;101436.94;;;19.64;56.35
68793;BME280;55778;54.346;10.210;2022-07-22T12:35:59;101439.78;;;19.56;54.70
68793;BME280;55778;54.346;10.210;2022-07-22T12:38:28;101426.28;;;19.61;55.94
68793;BME280;55778;54.346;10.210;2022-07-22T12:40:54;101438.31;;;19.45;55.88
68793;BME280;55778;54.346;10.210;2022-07-22T12:43:24;101440.69;;;19.71;55.73
68793;BME280;55778;54.346;10.210;2022-07-22T12:45:50;101435.19;;;19.48;56.08
68793;BME280;55778;54.346;10.210;2022-07-22T12:48:18;101445.91;;;19.66;56.96
68793;BME280;55778;54.346;10.210;2022-07-22T12:51:04;101449.28;;;19.91;54.57
68793;BME280;55778;54.346;10.210;2022-07-22T12:53:29;101446.22;;;19.71;56.03
68793;BME280;55778;54.346;10.210;2022-07-22T12:55:58;101429.75;;;19.40;56.95
68793;BME280;55778;54.346;10.210;2022-07-22T12:58:30;101436.94;;;19.27;56.54